Terminal Aerodrome Forecast
Issued by NWS Shreveport, LA

Home | Current Version | Previous Version | Text Only | Print | Product List | Glossary On
Versions: 1 2 3 4 5 6 7 8 9 10 11 12 13 14 15 16 17 18 19 20 21 22 23 24 25 26 27
000
FTUS44 KSHV 251742
TAFTYR
TAF
KTYR 251742Z 2518/2618 12011KT P6SM SCT060 BKN120
     FM260300 04004KT 3SM BR SCT025 BKN250
      TEMPO 2610/2614 2SM BR OVC008
     FM261500 07007KT P6SM SCT015 BKN250=

USA.gov is the U.S. government's official web portal to all federal, state and local government web resources and services.